createdAt,value
2022-12-19T00:02:09.769Z,-2.19
2022-12-19T00:05:13.426Z,-2.32
2022-12-19T00:08:17.932Z,-2.19
2022-12-19T00:11:23.113Z,-2.27
2022-12-19T00:14:25.375Z,-2.34
2022-12-19T00:17:27.590Z,-2.63
2022-12-19T00:20:29.938Z,-2.63
2022-12-19T00:23:34.321Z,-2.75
2022-12-19T00:26:37.165Z,-3.05
2022-12-19T00:29:39.349Z,-3.17
2022-12-19T00:32:41.631Z,-3.04
2022-12-19T00:35:43.822Z,-2.99
2022-12-19T00:38:47.088Z,-3.13
2022-12-19T00:41:50.657Z,-2.99
2022-12-19T00:44:52.862Z,-2.70
2022-12-19T00:47:55.058Z,-2.82
2022-12-19T00:51:18.640Z,-2.79
2022-12-19T00:54:21.087Z,-2.76
2022-12-19T00:57:23.789Z,-2.65
2022-12-19T01:00:26.026Z,-2.70
2022-12-19T01:03:31.700Z,-3.07
2022-12-19T01:06:33.982Z,-2.83
2022-12-19T01:09:37.244Z,-2.79
2022-12-19T01:12:48.362Z,-2.79
2022-12-19T01:15:50.614Z,-2.75
2022-12-19T01:18:52.780Z,-3.04
2022-12-19T01:21:55.154Z,-2.87
2022-12-19T01:24:57.743Z,-2.91
2022-12-19T01:28:00.028Z,-2.77
2022-12-19T01:31:06.371Z,-2.91
2022-12-19T01:34:10.508Z,-2.86
2022-12-19T01:37:12.755Z,-3.21
2022-12-19T01:40:15.050Z,-3.44
2022-12-19T01:43:18.131Z,-3.21
2022-12-19T01:46:33.519Z,-2.90
2022-12-19T01:49:37.181Z,-2.87
2022-12-19T01:52:39.963Z,-2.84
2022-12-19T01:55:44.155Z,-2.66
2022-12-19T01:58:47.853Z,-2.69
2022-12-19T02:01:57.345Z,-2.73
2022-12-19T02:05:01.664Z,-2.77
2022-12-19T02:08:04.736Z,-2.62
2022-12-19T02:11:07.110Z,-2.68
2022-12-19T02:14:09.814Z,-2.72
2022-12-19T02:17:29.729Z,-2.69
2022-12-19T02:21:09.227Z,-2.73
2022-12-19T02:24:20.407Z,-2.70
2022-12-19T02:27:40.570Z,-2.84
2022-12-19T02:30:52.263Z,-2.80
2022-12-19T02:33:56.734Z,-2.80
2022-12-19T02:37:09.560Z,-3.00
2022-12-19T02:40:21.880Z,-3.04
2022-12-19T02:43:27.025Z,-3.18
2022-12-19T02:46:29.676Z,-3.11
2022-12-19T02:49:37.364Z,-3.18
2022-12-19T02:52:39.637Z,-3.42
2022-12-19T02:56:17.284Z,-3.89
2022-12-19T02:59:29.229Z,-3.66
2022-12-19T03:03:00.506Z,-3.73
2022-12-19T03:06:18.054Z,-3.50
2022-12-19T03:09:32.718Z,-3.38
2022-12-19T03:12:44.888Z,-3.28
2022-12-19T03:15:47.644Z,-3.25
2022-12-19T03:18:50.889Z,-3.30
2022-12-19T03:21:53.182Z,-3.34
2022-12-19T03:24:55.394Z,-3.47
2022-12-19T03:28:04.852Z,-3.45
2022-12-19T03:31:09.908Z,-3.41
2022-12-19T03:34:26.821Z,-3.21
2022-12-19T03:37:34.430Z,-3.17
2022-12-19T03:40:40.045Z,-3.45
2022-12-19T03:43:44.533Z,-3.58
2022-12-19T03:46:55.221Z,-3.40
2022-12-19T03:49:57.671Z,-3.48
2022-12-19T03:53:11.294Z,-3.42
2022-12-19T03:56:32.089Z,-3.62
2022-12-19T03:59:49.012Z,-3.78
2022-12-19T04:02:54.747Z,-3.87
2022-12-19T04:05:58.873Z,-3.92
2022-12-19T04:09:01.886Z,-3.92
2022-12-19T04:12:08.773Z,-4.10
2022-12-19T04:15:12.619Z,-4.04
2022-12-19T04:18:16.030Z,-3.83
2022-12-19T04:21:35.129Z,-4.48
2022-12-19T04:24:40.649Z,-4.55
2022-12-19T04:27:52.321Z,-4.28
2022-12-19T04:30:55.078Z,-4.16
2022-12-19T04:33:57.498Z,-4.10
2022-12-19T04:37:03.573Z,-4.23
2022-12-19T04:40:08.290Z,-4.34
2022-12-19T04:43:10.691Z,-4.28
2022-12-19T04:46:12.974Z,-4.16
2022-12-19T04:49:15.281Z,-4.17
2022-12-19T04:52:18.780Z,-4.41
2022-12-19T04:55:20.980Z,-4.50
2022-12-19T04:58:23.163Z,-4.76
2022-12-19T05:01:25.919Z,-4.95
2022-12-19T05:04:28.266Z,-4.67
2022-12-19T05:07:30.532Z,-4.71
2022-12-19T05:10:32.797Z,-4.53
2022-12-19T05:13:35.371Z,-4.61
2022-12-19T05:16:37.617Z,-4.53
2022-12-19T05:19:39.849Z,-4.55
2022-12-19T05:22:42.074Z,-4.37
2022-12-19T05:25:44.471Z,-4.28
2022-12-19T05:28:47.079Z,-4.27
2022-12-19T05:31:49.511Z,-4.18
2022-12-19T05:34:51.755Z,-4.13
2022-12-19T05:37:53.993Z,-4.14
2022-12-19T05:40:56.286Z,-4.23
2022-12-19T05:43:58.584Z,-4.21
2022-12-19T05:47:00.907Z,-4.10
2022-12-19T05:50:03.962Z,-4.04
2022-12-19T05:53:06.257Z,-3.96
2022-12-19T05:56:11.872Z,-3.92
2022-12-19T05:59:14.159Z,-3.95
2022-12-19T06:02:16.518Z,-4.00
2022-12-19T06:05:18.792Z,-4.03
2022-12-19T06:08:20.990Z,-4.02
2022-12-19T06:11:24.027Z,-4.06
2022-12-19T06:14:26.761Z,-3.93
2022-12-19T06:17:29.037Z,-4.09
2022-12-19T06:20:31.251Z,-4.09
2022-12-19T06:23:35.872Z,-4.09
2022-12-19T06:26:38.100Z,-4.17
2022-12-19T06:29:40.336Z,-4.16
2022-12-19T06:32:44.292Z,-4.09
2022-12-19T06:35:46.562Z,-4.13
2022-12-19T06:38:50.858Z,-4.28
2022-12-19T06:42:11.533Z,-4.20
2022-12-19T06:45:13.833Z,-4.11
2022-12-19T06:48:16.052Z,-4.02
2022-12-19T06:51:18.547Z,-4.07
2022-12-19T06:54:21.169Z,-3.86
2022-12-19T06:57:23.478Z,-3.97
2022-12-19T07:00:25.771Z,-3.71
2022-12-19T07:03:37.207Z,-3.48
2022-12-19T07:06:44.744Z,-3.44
2022-12-19T07:10:00.896Z,-3.31
2022-12-19T07:13:07.522Z,-3.04
2022-12-19T07:16:15.103Z,-2.90
2022-12-19T07:19:31.169Z,-2.65
2022-12-19T07:22:36.001Z,-2.58
2022-12-19T07:25:51.424Z,-2.28
2022-12-19T07:28:58.948Z,-2.15
2022-12-19T07:32:04.899Z,-2.34
2022-12-19T07:35:12.590Z,-2.39
2022-12-19T07:38:16.977Z,-2.66
2022-12-19T07:41:36.963Z,-2.63
2022-12-19T07:44:40.634Z,-2.42
2022-12-19T07:47:43.202Z,-2.49
2022-12-19T07:50:49.377Z,-2.48
2022-12-19T07:54:00.175Z,-2.32
2022-12-19T07:57:04.229Z,-2.14
2022-12-19T08:00:11.677Z,-2.02
2022-12-19T08:03:26.956Z,-2.01
2022-12-19T08:06:40.612Z,-1.70
2022-12-19T08:09:48.959Z,-1.81
2022-12-19T08:13:00.114Z,-1.73
2022-12-19T08:16:14.783Z,-1.64
2022-12-19T08:19:23.488Z,-1.46
2022-12-19T08:22:37.298Z,-1.34
2022-12-19T08:25:40.143Z,-1.08
2022-12-19T08:28:45.827Z,-1.04
2022-12-19T08:31:55.848Z,-0.80
2022-12-19T08:35:06.926Z,-0.74
2022-12-19T08:38:19.341Z,-0.13
2022-12-19T08:41:26.498Z,0.63
2022-12-19T08:44:30.531Z,0.17
2022-12-19T08:47:32.928Z,-0.38
2022-12-19T08:50:37.851Z,-0.44
2022-12-19T08:53:42.428Z,0.04
2022-12-19T08:56:47.792Z,0.35
2022-12-19T08:59:50.028Z,1.31
2022-12-19T09:03:00.198Z,1.28
2022-12-19T09:06:10.485Z,0.87
2022-12-19T09:09:20.344Z,0.59
2022-12-19T09:12:25.977Z,0.62
2022-12-19T09:15:31.919Z,0.48
2022-12-19T09:18:45.154Z,0.70
2022-12-19T09:21:57.240Z,1.76
2022-12-19T09:25:03.902Z,2.26
2022-12-19T09:31:36.761Z,0.50
2022-12-19T09:34:40.304Z,0.17
2022-12-19T09:38:00.095Z,0.05
2022-12-19T09:41:44.742Z,0.02
2022-12-19T09:44:53.879Z,-0.01
2022-12-19T09:48:00.710Z,0.17
2022-12-19T09:51:38.070Z,0.32
2022-12-19T09:55:17.212Z,0.53
2022-12-19T09:58:43.002Z,1.78
2022-12-19T10:02:12.982Z,1.59
2022-12-19T10:05:59.329Z,1.72
2022-12-19T10:10:09.838Z,1.82
2022-12-19T10:12:51.293Z,1.65
2022-12-19T10:16:31.904Z,1.86
2022-12-19T10:20:06.107Z,1.89
2022-12-19T10:23:35.840Z,1.92
2022-12-19T10:26:53.383Z,2.27
2022-12-19T10:30:17.953Z,2.65
2022-12-19T10:33:40.416Z,2.70
2022-12-19T10:40:59.117Z,5.11
2022-12-19T10:44:11.650Z,4.87
2022-12-19T10:47:17.467Z,5.31
2022-12-19T10:50:25.757Z,4.84
2022-12-19T10:53:30.623Z,5.75
2022-12-19T10:56:37.714Z,6.09
2022-12-19T10:59:54.384Z,6.20
2022-12-19T11:03:18.804Z,4.90
2022-12-19T11:06:35.576Z,7.43
2022-12-19T11:09:48.152Z,7.27
2022-12-19T11:18:42.692Z,6.44
2022-12-19T11:23:26.046Z,5.13
2022-12-19T11:29:24.897Z,4.67
2022-12-19T11:29:39.636Z,4.62
2022-12-19T11:30:26.146Z,5.92
2022-12-19T11:34:35.971Z,5.93
2022-12-19T11:37:55.761Z,4.76
2022-12-19T11:41:02.882Z,3.59
2022-12-19T11:44:23.130Z,4.80
2022-12-19T11:47:53.041Z,5.20
2022-12-19T11:51:33.671Z,4.94
2022-12-19T11:54:59.442Z,5.23
2022-12-19T11:58:03.352Z,4.52
2022-12-19T12:01:19.285Z,4.67
2022-12-19T12:05:06.045Z,4.15
2022-12-19T12:10:38.457Z,3.69
2022-12-19T12:19:04.531Z,3.98
2022-12-19T12:24:34.260Z,3.80
2022-12-19T12:31:18.863Z,3.19
2022-12-19T12:31:44.720Z,3.12
2022-12-19T12:31:52.360Z,4.17
2022-12-19T12:32:05.787Z,6.23
2022-12-19T12:35:31.717Z,7.57
2022-12-19T12:38:18.746Z,8.90
2022-12-19T12:41:16.413Z,7.85
2022-12-19T12:44:32.606Z,8.57
2022-12-19T12:47:36.272Z,8.56
2022-12-19T12:50:41.492Z,8.75
2022-12-19T12:53:46.683Z,8.08
2022-12-19T12:56:48.962Z,8.66
2022-12-19T13:00:15.015Z,9.03
2022-12-19T13:03:18.991Z,10.30
2022-12-19T13:06:31.831Z,9.42
2022-12-19T13:09:36.729Z,6.94
2022-12-19T13:13:17.403Z,8.07
2022-12-19T13:16:45.468Z,7.03
2022-12-19T13:20:16.610Z,6.72
2022-12-19T13:23:21.850Z,6.14
2022-12-19T13:26:44.696Z,5.07
2022-12-19T13:29:59.816Z,3.84
2022-12-19T13:33:02.035Z,3.06
2022-12-19T13:39:48.805Z,2.60
2022-12-19T13:40:00.761Z,2.02
2022-12-19T13:43:47.962Z,1.73
2022-12-19T13:46:51.713Z,1.51
2022-12-19T13:49:54.790Z,1.71
2022-12-19T13:52:57.190Z,1.92
2022-12-19T13:56:05.341Z,2.20
2022-12-19T13:59:07.628Z,2.27
2022-12-19T14:02:28.564Z,2.16
2022-12-19T14:06:16.664Z,2.17
2022-12-19T14:11:24.273Z,2.10
2022-12-19T14:14:00.670Z,1.86
2022-12-19T14:16:23.902Z,1.56
2022-12-19T14:19:48.871Z,1.37
2022-12-19T14:22:56.550Z,1.23
2022-12-19T14:28:20.602Z,1.01
2022-12-19T14:30:28.005Z,0.87
2022-12-19T14:33:46.784Z,0.83
2022-12-19T14:36:52.709Z,0.69
2022-12-19T14:39:59.847Z,0.60
2022-12-19T14:43:56.904Z,0.50
2022-12-19T14:54:06.518Z,0.36
2022-12-19T14:54:11.540Z,0.44
2022-12-19T14:57:46.427Z,0.11
2022-12-19T15:01:09.020Z,0.02
2022-12-19T15:04:52.826Z,-0.06
2022-12-19T15:07:44.322Z,-0.19
2022-12-19T15:11:08.134Z,-0.23
2022-12-19T15:14:53.929Z,-0.19
2022-12-19T15:17:31.759Z,-0.20
2022-12-19T15:20:33.964Z,-0.24
2022-12-19T15:23:36.228Z,-0.33
2022-12-19T15:26:48.190Z,-0.40
2022-12-19T15:29:50.471Z,-0.45
2022-12-19T15:32:52.719Z,-0.44
2022-12-19T15:35:55.656Z,-0.41
2022-12-19T15:38:57.922Z,-0.50
2022-12-19T15:42:00.510Z,-0.45
2022-12-19T15:45:04.169Z,-0.44
2022-12-19T15:48:06.428Z,-0.49
2022-12-19T15:51:13.390Z,-0.56
2022-12-19T15:57:42.495Z,-0.63
2022-12-19T16:01:01.318Z,-0.70
2022-12-19T16:04:03.977Z,-0.75
2022-12-19T16:07:15.139Z,-0.67
2022-12-19T16:10:17.672Z,-0.78
2022-12-19T16:13:23.962Z,-0.91
2022-12-19T16:16:26.250Z,-1.01
2022-12-19T16:19:30.680Z,-0.99
2022-12-19T16:22:32.916Z,-0.99
2022-12-19T16:25:38.371Z,-1.05
2022-12-19T16:28:40.629Z,-1.06
2022-12-19T16:31:42.936Z,-1.11
2022-12-19T16:34:45.331Z,-1.09
2022-12-19T16:37:47.903Z,-1.02
2022-12-19T16:40:53.142Z,-1.09
2022-12-19T16:43:55.547Z,-1.11
2022-12-19T16:46:57.875Z,-1.18
2022-12-19T16:50:00.126Z,-1.01
2022-12-19T16:53:02.337Z,-0.88
2022-12-19T16:56:05.103Z,-0.87
2022-12-19T16:59:22.337Z,-0.87
2022-12-19T17:02:46.355Z,-0.87
2022-12-19T17:05:48.712Z,-0.85
2022-12-19T17:08:51.118Z,-0.81
2022-12-19T17:11:57.768Z,-0.73
2022-12-19T17:15:00.149Z,-0.73
2022-12-19T17:18:31.639Z,-0.80
2022-12-19T17:21:33.862Z,-0.81
2022-12-19T17:24:36.117Z,-0.83
2022-12-19T17:27:38.318Z,-0.91
2022-12-19T17:30:41.895Z,-0.87
2022-12-19T17:33:44.161Z,-0.91
2022-12-19T17:36:46.403Z,-0.94
2022-12-19T17:39:48.704Z,-0.91
2022-12-19T17:42:51.215Z,-0.95
2022-12-19T17:45:53.553Z,-1.01
2022-12-19T17:48:55.854Z,-1.01
2022-12-19T17:51:59.568Z,-1.04
2022-12-19T17:55:22.238Z,-1.02
2022-12-19T17:58:24.729Z,-1.04
2022-12-19T18:01:27.425Z,-1.04
2022-12-19T18:04:31.637Z,-1.12
2022-12-19T18:07:33.915Z,-1.05
2022-12-19T18:10:36.176Z,-1.05
2022-12-19T18:13:38.401Z,-1.04
2022-12-19T18:16:41.110Z,-0.98
2022-12-19T18:19:43.390Z,-0.98
2022-12-19T18:22:46.198Z,-0.89
2022-12-19T18:25:49.199Z,-0.89
2022-12-19T18:28:51.439Z,-0.89
2022-12-19T18:31:55.075Z,-0.92
2022-12-19T18:34:57.936Z,-0.87
2022-12-19T18:38:01.662Z,-0.91
2022-12-19T18:41:03.997Z,-0.87
2022-12-19T18:44:12.452Z,-0.77
2022-12-19T18:47:25.496Z,-0.77
2022-12-19T18:50:29.186Z,-0.64
2022-12-19T18:53:34.860Z,-0.73
2022-12-19T18:56:38.114Z,-0.78
2022-12-19T18:59:40.334Z,-0.67
2022-12-19T19:02:57.273Z,-0.70
2022-12-19T19:06:00.353Z,-0.75
2022-12-19T19:09:02.621Z,-0.83
2022-12-19T19:12:28.665Z,-0.80
2022-12-19T19:15:34.275Z,-0.80
2022-12-19T19:18:39.824Z,-0.77
2022-12-19T19:21:42.807Z,-0.75
2022-12-19T19:24:45.114Z,-0.74
2022-12-19T19:27:47.376Z,-0.74
2022-12-19T19:30:51.400Z,-0.71
2022-12-19T19:34:03.100Z,-0.70
2022-12-19T19:37:09.080Z,-0.71
2022-12-19T19:40:12.078Z,-0.71
2022-12-19T19:43:14.289Z,-0.70
2022-12-19T19:46:16.634Z,-0.71
2022-12-19T19:49:20.551Z,-0.73
2022-12-19T19:52:22.991Z,-0.74
2022-12-19T19:55:25.682Z,-0.67
2022-12-19T19:58:30.423Z,-0.67
2022-12-19T20:01:32.766Z,-0.70
2022-12-19T20:04:36.350Z,-0.71
2022-12-19T20:07:38.769Z,-0.71
2022-12-19T20:10:40.981Z,-0.71
2022-12-19T20:13:43.413Z,-0.71
2022-12-19T20:16:45.812Z,-0.74
2022-12-19T20:19:48.096Z,-0.80
2022-12-19T20:22:50.369Z,-0.81
2022-12-19T20:25:52.592Z,-0.81
2022-12-19T20:28:54.848Z,-0.85
2022-12-19T20:32:05.310Z,-0.87
2022-12-19T20:35:13.957Z,-0.92
2022-12-19T20:38:16.949Z,-0.84
2022-12-19T20:41:19.532Z,-0.88
2022-12-19T20:44:24.378Z,-0.85
2022-12-19T20:47:27.061Z,-0.89
2022-12-19T20:50:29.309Z,-0.85
2022-12-19T20:53:32.891Z,-1.01
2022-12-19T20:56:36.327Z,-1.04
2022-12-19T20:59:38.545Z,-1.11
2022-12-19T21:03:17.257Z,-1.08
2022-12-19T21:06:04.353Z,-1.16
2022-12-19T21:09:06.613Z,-1.26
2022-12-19T21:12:08.837Z,-1.31
2022-12-19T21:15:11.310Z,-1.26
2022-12-19T21:18:13.519Z,-1.29
2022-12-19T21:21:22.641Z,-1.31
2022-12-19T21:24:24.897Z,-1.26
2022-12-19T21:27:27.167Z,-1.29
2022-12-19T21:30:29.413Z,-1.29
2022-12-19T21:33:31.744Z,-1.31
2022-12-19T21:36:33.947Z,-1.31
2022-12-19T21:39:36.197Z,-1.16
2022-12-19T21:42:38.435Z,-1.13
2022-12-19T21:45:40.720Z,-1.01
2022-12-19T21:48:50.490Z,-0.94
2022-12-19T21:51:52.688Z,-0.95
2022-12-19T21:54:54.921Z,-0.89
2022-12-19T21:57:57.190Z,-0.87
2022-12-19T22:01:11.403Z,-0.87
2022-12-19T22:04:17.821Z,-0.85
2022-12-19T22:07:20.303Z,-0.81
2022-12-19T22:10:22.508Z,-0.84
2022-12-19T22:13:24.820Z,-0.78
2022-12-19T22:16:29.204Z,-0.77
2022-12-19T22:19:31.746Z,-0.80
2022-12-19T22:22:33.957Z,-0.77
2022-12-19T22:25:36.745Z,-0.85
2022-12-19T22:28:40.801Z,-0.80
2022-12-19T22:31:43.906Z,-0.80
2022-12-19T22:34:48.179Z,-0.84
2022-12-19T22:37:50.528Z,-0.85
2022-12-19T22:40:52.838Z,-0.85
2022-12-19T22:43:55.960Z,-0.84
2022-12-19T22:46:58.205Z,-0.81
2022-12-19T22:50:00.468Z,-0.75
2022-12-19T22:53:02.710Z,-0.77
2022-12-19T22:56:11.719Z,-0.74
2022-12-19T22:59:14.051Z,-0.75
2022-12-19T23:02:16.450Z,-0.71
2022-12-19T23:05:18.829Z,-0.73
2022-12-19T23:08:21.195Z,-0.74
2022-12-19T23:11:27.571Z,-0.74
2022-12-19T23:14:29.887Z,-0.75
2022-12-19T23:17:32.129Z,-0.75
2022-12-19T23:20:34.404Z,-0.78
2022-12-19T23:23:42.552Z,-0.80
2022-12-19T23:26:44.881Z,-0.78
2022-12-19T23:29:49.260Z,-0.80
2022-12-19T23:32:54.219Z,-0.78
2022-12-19T23:35:56.510Z,-0.80
2022-12-19T23:38:58.779Z,-0.80
2022-12-19T23:42:01.018Z,-0.73
2022-12-19T23:45:03.415Z,-0.77
2022-12-19T23:48:05.990Z,-0.73
2022-12-19T23:51:13.557Z,-0.75
2022-12-19T23:54:15.777Z,-0.73
2022-12-19T23:57:18.109Z,-0.73
